createdAt,value
2023-09-12T00:00:24.653Z,17.02
2023-09-12T00:02:51.592Z,18.25
2023-09-12T00:05:18.312Z,17.88
2023-09-12T00:07:44.905Z,16.52
2023-09-12T00:10:11.504Z,18.48
2023-09-12T00:12:38.150Z,16.73
2023-09-12T00:15:05.654Z,15.85
2023-09-12T00:17:32.387Z,16.23
2023-09-12T00:19:58.960Z,14.15
2023-09-12T00:22:25.547Z,16.27
2023-09-12T00:24:52.048Z,21.48
2023-09-12T00:27:18.628Z,18.17
2023-09-12T00:29:45.316Z,17.70
2023-09-12T00:32:13.300Z,19.45
2023-09-12T00:34:39.765Z,15.68
2023-09-12T00:37:06.513Z,17.25
2023-09-12T00:39:33.590Z,16.25
2023-09-12T00:42:00.116Z,16.13
2023-09-12T00:44:26.966Z,16.90
2023-09-12T00:46:55.451Z,16.27
2023-09-12T00:49:23.758Z,15.20
2023-09-12T00:51:51.826Z,13.50
2023-09-12T00:54:18.862Z,17.95
2023-09-12T00:56:46.372Z,18.42
2023-09-12T00:59:14.437Z,15.98
2023-09-12T01:01:41.137Z,15.45
2023-09-12T01:04:14.611Z,16.35
2023-09-12T01:06:48.626Z,15.32
2023-09-12T01:09:15.208Z,18.52
2023-09-12T01:11:42.463Z,20.35
2023-09-12T01:14:09.028Z,13.75
2023-09-12T01:16:35.636Z,15.80
2023-09-12T01:19:02.631Z,18.63
2023-09-12T01:22:08.779Z,16.17
2023-09-12T01:24:43.129Z,16.80
2023-09-12T01:27:22.837Z,18.48
2023-09-12T01:29:54.867Z,17.13
2023-09-12T01:32:22.074Z,20.77
2023-09-12T01:34:49.056Z,17.85
2023-09-12T01:37:16.080Z,17.83
2023-09-12T01:39:43.014Z,18.00
2023-09-12T01:42:17.051Z,16.77
2023-09-12T01:44:47.951Z,18.10
2023-09-12T01:47:15.803Z,18.65
2023-09-12T01:49:46.572Z,18.02
2023-09-12T01:52:14.172Z,19.90
2023-09-12T01:54:42.492Z,17.42
2023-09-12T01:57:10.787Z,19.90
2023-09-12T01:59:38.075Z,18.83
2023-09-12T02:02:04.777Z,15.10
2023-09-12T02:04:31.532Z,18.48
2023-09-12T02:06:59.260Z,17.85
2023-09-12T02:09:26.399Z,20.40
2023-09-12T02:11:52.998Z,18.48
2023-09-12T02:14:19.474Z,16.42
2023-09-12T02:16:46.618Z,18.50
2023-09-12T02:19:13.207Z,18.60
2023-09-12T02:21:39.921Z,19.23
2023-09-12T02:24:06.918Z,19.10
2023-09-12T02:26:37.145Z,17.08
2023-09-12T02:29:06.895Z,17.27
2023-09-12T02:31:33.593Z,18.02
2023-09-12T02:34:00.338Z,15.73
2023-09-12T02:36:27.002Z,17.38
2023-09-12T02:38:53.562Z,14.00
2023-09-12T02:41:20.206Z,20.23
2023-09-12T02:43:46.754Z,14.32
2023-09-12T02:46:13.481Z,21.20
2023-09-12T02:48:40.136Z,13.65
2023-09-12T02:51:07.743Z,18.80
2023-09-12T02:53:34.257Z,15.13
2023-09-12T02:56:01.216Z,16.23
2023-09-12T02:58:27.794Z,16.65
2023-09-12T03:00:55.710Z,16.83
2023-09-12T03:03:22.847Z,13.40
2023-09-12T03:05:58.542Z,14.38
2023-09-12T03:08:25.274Z,17.42
2023-09-12T03:10:58.459Z,16.70
2023-09-12T03:13:26.573Z,17.92
2023-09-12T03:15:53.937Z,20.85
2023-09-12T03:18:21.112Z,13.50
2023-09-12T03:20:47.805Z,14.93
2023-09-12T03:23:14.335Z,16.20
2023-09-12T03:25:40.894Z,17.75
2023-09-12T03:28:08.456Z,20.25
2023-09-12T03:30:36.666Z,20.80
2023-09-12T03:33:04.479Z,17.83
2023-09-12T03:35:32.773Z,15.77
2023-09-12T03:37:59.611Z,17.45
2023-09-12T03:40:26.309Z,17.13
2023-09-12T03:42:53.737Z,18.95
2023-09-12T03:45:20.279Z,17.90
2023-09-12T03:47:48.078Z,17.67
2023-09-12T03:50:16.134Z,17.17
2023-09-12T03:52:42.826Z,20.73
2023-09-12T03:55:09.818Z,24.55
2023-09-12T03:57:36.427Z,17.63
2023-09-12T04:00:06.912Z,17.70
2023-09-12T04:02:40.480Z,18.77
2023-09-12T04:05:07.863Z,19.40
2023-09-12T04:07:34.398Z,18.30
2023-09-12T04:10:00.893Z,20.63
2023-09-12T04:12:27.390Z,17.95
2023-09-12T04:14:54.095Z,17.40
2023-09-12T04:17:20.763Z,20.80
2023-09-12T04:19:47.280Z,17.15
2023-09-12T04:22:14.494Z,17.92
2023-09-12T04:24:41.160Z,15.40
2023-09-12T04:27:07.699Z,17.98
2023-09-12T04:29:37.602Z,15.38
2023-09-12T04:32:05.661Z,23.48
2023-09-12T04:34:33.864Z,19.85
2023-09-12T04:37:00.418Z,19.00
2023-09-12T04:39:27.205Z,18.60
2023-09-12T04:41:53.739Z,19.52
2023-09-12T04:44:20.258Z,20.85
2023-09-12T04:46:47.434Z,14.70
2023-09-12T04:49:14.060Z,13.40
2023-09-12T04:51:41.361Z,21.25
2023-09-12T04:54:07.981Z,19.73
2023-09-12T04:56:34.528Z,22.95
2023-09-12T04:59:01.224Z,18.52
2023-09-12T05:01:27.776Z,16.58
2023-09-12T05:03:54.476Z,18.23
2023-09-12T05:06:21.174Z,17.50
2023-09-12T05:08:47.766Z,20.35
2023-09-12T05:11:14.614Z,16.90
2023-09-12T05:13:42.189Z,18.85
2023-09-12T05:16:08.929Z,18.33
2023-09-12T05:18:35.567Z,14.80
2023-09-12T05:21:02.103Z,18.85
2023-09-12T05:23:28.630Z,24.52
2023-09-12T05:25:55.155Z,19.35
2023-09-12T05:28:21.736Z,20.52
2023-09-12T05:30:50.554Z,20.00
2023-09-12T05:33:17.677Z,17.92
2023-09-12T05:35:45.492Z,19.17
2023-09-12T05:38:12.368Z,36.65
2023-09-12T05:40:38.958Z,21.20
2023-09-12T05:43:05.467Z,29.00
2023-09-12T05:45:33.848Z,24.98
2023-09-12T05:48:01.192Z,24.67
2023-09-12T05:50:28.874Z,27.83
2023-09-12T05:52:55.442Z,23.13
2023-09-12T05:55:22.499Z,23.98
2023-09-12T05:57:53.632Z,18.27
2023-09-12T06:00:22.150Z,24.17
2023-09-12T06:02:49.186Z,18.38
2023-09-12T06:05:17.170Z,22.50
2023-09-12T06:07:44.262Z,20.63
2023-09-12T06:10:10.875Z,19.58
2023-09-12T06:12:37.590Z,16.38
2023-09-12T06:15:05.512Z,19.27
2023-09-12T06:17:32.734Z,14.90
2023-09-12T06:19:59.515Z,21.08
2023-09-12T06:22:26.199Z,17.35
2023-09-12T06:24:52.924Z,18.85
2023-09-12T06:27:22.651Z,14.77
2023-09-12T06:29:49.827Z,17.10
2023-09-12T06:32:17.244Z,16.00
2023-09-12T06:34:43.755Z,20.95
2023-09-12T06:37:12.451Z,15.52
2023-09-12T06:39:39.191Z,13.98
2023-09-12T06:42:06.289Z,15.73
2023-09-12T06:44:32.783Z,17.73
2023-09-12T06:46:59.242Z,10.38
2023-09-12T06:49:25.719Z,18.20
2023-09-12T06:51:52.251Z,15.23
2023-09-12T06:54:19.052Z,16.60
2023-09-12T06:56:45.566Z,16.95
2023-09-12T06:59:12.464Z,18.42
2023-09-12T07:01:39.199Z,15.55
2023-09-12T07:04:06.013Z,15.88
2023-09-12T07:06:34.014Z,18.63
2023-09-12T07:09:00.966Z,15.05
2023-09-12T07:11:27.492Z,18.52
2023-09-12T07:13:53.985Z,22.13
2023-09-12T07:16:21.600Z,19.13
2023-09-12T07:18:51.653Z,18.10
2023-09-12T07:21:18.637Z,18.00
2023-09-12T07:23:45.613Z,14.82
2023-09-12T07:26:15.893Z,14.15
2023-09-12T07:28:42.488Z,11.27
2023-09-12T07:31:09.111Z,14.68
2023-09-12T07:33:35.759Z,11.52
2023-09-12T07:36:03.985Z,15.32
2023-09-12T07:38:33.495Z,13.30
2023-09-12T07:41:01.741Z,15.20
2023-09-12T07:43:28.273Z,14.20
2023-09-12T07:45:59.135Z,12.73
2023-09-12T07:50:52.923Z,14.73
2023-09-12T07:53:19.768Z,14.18
2023-09-12T07:55:47.492Z,17.40
2023-09-12T07:58:15.902Z,13.02
2023-09-12T08:00:42.709Z,13.98
2023-09-12T08:03:09.510Z,17.67
2023-09-12T08:05:36.284Z,14.77
2023-09-12T08:08:03.310Z,14.13
2023-09-12T08:10:30.313Z,19.25
2023-09-12T08:12:56.909Z,17.67
2023-09-12T08:15:23.412Z,16.40
2023-09-12T08:17:53.049Z,16.35
2023-09-12T08:20:20.952Z,14.18
2023-09-12T08:22:47.902Z,19.05
2023-09-12T08:25:15.699Z,16.02
2023-09-12T08:27:44.339Z,15.90
2023-09-12T08:30:14.875Z,15.82
2023-09-12T08:32:45.480Z,14.63
2023-09-12T08:37:42.659Z,20.30
2023-09-12T08:40:11.444Z,16.00
2023-09-12T08:42:43.936Z,17.90
2023-09-12T08:45:18.395Z,16.85
2023-09-12T08:47:46.791Z,16.05
2023-09-12T08:50:15.722Z,13.18
2023-09-12T08:52:59.661Z,14.10
2023-09-12T08:55:33.081Z,15.43
2023-09-12T08:58:00.941Z,16.88
2023-09-12T09:00:28.477Z,16.48
2023-09-12T09:02:55.652Z,19.15
2023-09-12T09:05:24.289Z,15.32
2023-09-12T09:07:52.422Z,16.27
2023-09-12T09:10:24.105Z,13.85
2023-09-12T09:12:55.566Z,15.25
2023-09-12T09:15:25.043Z,15.82
2023-09-12T09:17:53.233Z,13.55
2023-09-12T09:20:30.730Z,12.45
2023-09-12T09:23:00.865Z,12.05
2023-09-12T09:25:28.154Z,21.42
2023-09-12T09:27:54.886Z,10.95
2023-09-12T09:30:40.755Z,10.38
2023-09-12T09:33:07.781Z,11.30
2023-09-12T09:35:34.859Z,18.02
2023-09-12T09:38:01.674Z,13.05
2023-09-12T09:40:28.202Z,10.00
2023-09-12T09:43:00.395Z,12.27
2023-09-12T09:45:28.517Z,11.35
2023-09-12T09:47:59.459Z,13.57
2023-09-12T09:50:26.846Z,9.60
2023-09-12T09:52:57.368Z,9.13
2023-09-12T09:55:24.619Z,10.05
2023-09-12T09:57:53.208Z,8.43
2023-09-12T10:00:29.721Z,10.48
2023-09-12T10:02:57.015Z,13.48
2023-09-12T10:05:23.864Z,8.80
2023-09-12T10:07:51.856Z,8.27
2023-09-12T10:10:20.372Z,9.43
2023-09-12T10:12:52.690Z,10.35
2023-09-12T10:15:20.586Z,10.68
2023-09-12T10:18:29.376Z,11.43
2023-09-12T10:21:04.816Z,11.02
2023-09-12T10:23:46.355Z,9.00
2023-09-12T10:26:14.702Z,10.82
2023-09-12T10:28:43.134Z,11.93
2023-09-12T10:31:12.913Z,10.68
2023-09-12T10:33:40.259Z,9.48
2023-09-12T10:36:09.852Z,12.63
2023-09-12T10:38:44.528Z,9.55
2023-09-12T10:41:15.805Z,11.48
2023-09-12T10:43:44.339Z,8.38
2023-09-12T10:46:11.523Z,8.57
2023-09-12T10:48:38.582Z,8.55
2023-09-12T10:51:06.283Z,10.85
2023-09-12T10:53:34.841Z,10.10
2023-09-12T10:56:20.439Z,9.80
2023-09-12T10:59:05.280Z,9.10
2023-09-12T11:01:33.157Z,11.27
2023-09-12T11:04:19.902Z,10.05
2023-09-12T11:06:50.899Z,8.50
2023-09-12T11:09:25.023Z,9.52
2023-09-12T11:12:09.253Z,11.75
2023-09-12T11:14:35.764Z,10.45
2023-09-12T11:17:08.734Z,11.55
2023-09-12T11:19:46.378Z,10.13
2023-09-12T11:22:29.204Z,11.30
2023-09-12T11:24:57.548Z,8.93
2023-09-12T11:27:45.331Z,9.75
2023-09-12T11:30:12.624Z,11.98
2023-09-12T11:32:39.573Z,13.02
2023-09-12T11:35:09.749Z,8.38
2023-09-12T11:37:38.271Z,12.18
2023-09-12T11:40:34.610Z,8.18
2023-09-12T11:43:02.187Z,10.68
2023-09-12T11:45:29.224Z,11.43
2023-09-12T11:47:55.934Z,11.45
2023-09-12T11:50:31.782Z,8.95
2023-09-12T11:53:09.083Z,9.50
2023-09-12T11:55:49.676Z,11.00
2023-09-12T11:58:17.534Z,10.75
2023-09-12T12:00:49.325Z,7.65
2023-09-12T12:03:16.435Z,11.93
2023-09-12T12:05:43.462Z,9.13
2023-09-12T12:08:30.367Z,12.52
2023-09-12T12:10:59.846Z,10.30
2023-09-12T12:13:28.753Z,7.90
2023-09-12T12:15:55.443Z,9.90
2023-09-12T12:18:22.157Z,8.77
2023-09-12T12:20:48.798Z,10.55
2023-09-12T12:23:15.437Z,12.98
2023-09-12T12:25:41.972Z,9.80
2023-09-12T12:28:08.509Z,9.55
2023-09-12T12:30:37.142Z,10.93
2023-09-12T12:33:48.335Z,11.50
2023-09-12T12:36:06.752Z,8.13
2023-09-12T12:38:37.507Z,12.30
2023-09-12T12:41:04.947Z,8.25
2023-09-12T12:43:32.283Z,9.07
2023-09-12T12:46:00.046Z,9.15
2023-09-12T12:48:37.557Z,9.63
2023-09-12T12:51:23.956Z,10.02
2023-09-12T12:53:54.487Z,10.23
2023-09-12T12:56:31.745Z,9.75
2023-09-12T12:59:03.583Z,8.27
2023-09-12T13:01:30.728Z,13.60
2023-09-12T13:04:00.305Z,10.43
2023-09-12T13:06:28.904Z,8.00
2023-09-12T13:08:55.550Z,10.05
2023-09-12T13:11:22.131Z,9.70
2023-09-12T13:13:50.338Z,8.98
2023-09-12T13:16:17.753Z,10.27
2023-09-12T13:18:44.524Z,8.25
2023-09-12T13:21:11.284Z,10.13
2023-09-12T13:23:39.013Z,15.95
2023-09-12T13:26:08.711Z,7.45
2023-09-12T13:28:35.224Z,9.18
2023-09-12T13:31:01.796Z,9.57
2023-09-12T13:33:28.729Z,9.68
2023-09-12T13:35:55.359Z,11.52
2023-09-12T13:38:23.845Z,12.18
2023-09-12T13:40:50.388Z,10.05
2023-09-12T13:43:16.986Z,8.18
2023-09-12T13:45:43.724Z,12.82
2023-09-12T13:48:10.333Z,15.02
2023-09-12T13:50:37.078Z,15.98
2023-09-12T13:53:11.154Z,12.10
2023-09-12T13:55:38.341Z,9.10
2023-09-12T13:58:06.223Z,8.75
2023-09-12T14:00:36.953Z,10.77
2023-09-12T14:03:04.660Z,9.88
2023-09-12T14:05:32.082Z,9.48
2023-09-12T14:07:59.716Z,10.75
2023-09-12T14:10:34.889Z,10.77
2023-09-12T14:13:16.747Z,11.00
2023-09-12T14:15:48.755Z,16.48
2023-09-12T14:18:15.416Z,9.38
2023-09-12T14:20:43.517Z,11.00
2023-09-12T14:23:10.380Z,10.65
2023-09-12T14:25:39.212Z,11.38
2023-09-12T14:28:06.294Z,13.48
2023-09-12T14:30:37.411Z,14.98
2023-09-12T14:33:04.787Z,10.60
2023-09-12T14:35:31.328Z,15.32
2023-09-12T14:37:59.818Z,16.20
2023-09-12T14:40:27.805Z,19.02
2023-09-12T14:42:54.841Z,17.05
2023-09-12T14:45:21.408Z,15.07
2023-09-12T14:47:48.081Z,16.35
2023-09-12T14:50:14.829Z,15.65
2023-09-12T14:52:43.022Z,10.73
2023-09-12T14:55:10.039Z,11.07
2023-09-12T14:57:37.024Z,10.77
2023-09-12T15:00:04.347Z,17.23
2023-09-12T15:02:32.847Z,10.32
2023-09-12T15:05:00.938Z,11.45
2023-09-12T15:07:30.873Z,10.63
2023-09-12T15:09:58.261Z,15.57
2023-09-12T15:12:24.898Z,12.75
2023-09-12T15:14:52.253Z,13.77
2023-09-12T15:17:19.512Z,9.38
2023-09-12T15:19:46.102Z,9.40
2023-09-12T15:22:12.928Z,8.73
2023-09-12T15:24:41.350Z,12.40
2023-09-12T15:27:08.076Z,9.95
2023-09-12T15:29:34.583Z,10.23
2023-09-12T15:32:01.520Z,9.98
2023-09-12T15:34:28.047Z,10.38
2023-09-12T15:37:21.493Z,11.55
2023-09-12T15:39:49.385Z,10.02
2023-09-12T15:42:27.873Z,9.60
2023-09-12T15:45:02.718Z,12.80
2023-09-12T15:47:29.772Z,14.60
2023-09-12T15:49:57.392Z,12.73
2023-09-12T15:52:23.978Z,15.05
2023-09-12T15:54:52.991Z,9.88
2023-09-12T15:57:20.163Z,12.88
2023-09-12T15:59:46.670Z,10.43
2023-09-12T16:02:13.859Z,11.00
2023-09-12T16:04:40.651Z,12.52
2023-09-12T16:07:07.426Z,12.48
2023-09-12T16:09:34.107Z,14.40
2023-09-12T16:12:00.600Z,9.90
2023-09-12T16:14:27.146Z,12.18
2023-09-12T16:16:53.870Z,13.18
2023-09-12T16:19:20.375Z,12.10
2023-09-12T16:21:47.111Z,17.60
2023-09-12T16:24:13.676Z,10.50
2023-09-12T16:26:40.197Z,8.82
2023-09-12T16:29:06.936Z,13.48
2023-09-12T16:31:33.563Z,16.98
2023-09-12T16:34:00.369Z,12.60
2023-09-12T16:36:27.314Z,10.32
2023-09-12T16:38:54.564Z,11.40
2023-09-12T16:41:21.185Z,13.80
2023-09-12T16:43:47.779Z,13.45
2023-09-12T16:46:14.363Z,10.55
2023-09-12T16:48:40.977Z,14.27
2023-09-12T16:51:07.447Z,11.93
2023-09-12T16:53:33.949Z,12.20
2023-09-12T16:56:00.558Z,11.23
2023-09-12T16:58:27.840Z,11.60
2023-09-12T17:00:55.035Z,11.80
2023-09-12T17:03:21.890Z,12.23
2023-09-12T17:05:48.628Z,11.73
2023-09-12T17:08:15.132Z,14.63
2023-09-12T17:10:41.802Z,16.98
2023-09-12T17:13:08.518Z,12.35
2023-09-12T17:15:38.609Z,13.40
2023-09-12T17:18:06.594Z,12.88
2023-09-12T17:20:34.167Z,12.40
2023-09-12T17:23:00.991Z,12.98
2023-09-12T17:25:27.570Z,8.13
2023-09-12T17:27:54.113Z,8.77
2023-09-12T17:30:20.798Z,9.40
2023-09-12T17:32:47.316Z,8.57
2023-09-12T17:35:13.853Z,12.40
2023-09-12T17:37:40.873Z,7.50
2023-09-12T17:40:08.287Z,8.55
2023-09-12T17:42:35.712Z,6.50
2023-09-12T17:45:02.570Z,9.32
2023-09-12T17:47:29.142Z,6.85
2023-09-12T17:49:57.319Z,7.00
2023-09-12T17:52:23.900Z,8.38
2023-09-12T17:54:50.470Z,10.40
2023-09-12T17:57:17.201Z,7.65
2023-09-12T17:59:45.271Z,9.68
2023-09-12T18:02:11.889Z,11.45
2023-09-12T18:04:41.078Z,8.10
2023-09-12T18:07:08.072Z,7.95
2023-09-12T18:09:35.162Z,8.45
2023-09-12T18:12:01.855Z,8.27
2023-09-12T18:14:28.317Z,8.55
2023-09-12T18:16:54.944Z,11.90
2023-09-12T18:19:23.315Z,9.10
2023-09-12T18:21:50.510Z,10.18
2023-09-12T18:24:18.115Z,11.75
2023-09-12T18:26:44.968Z,9.38
2023-09-12T18:29:11.558Z,13.50
2023-09-12T18:31:38.205Z,10.95
2023-09-12T18:34:04.897Z,12.90
2023-09-12T18:36:31.718Z,9.00
2023-09-12T18:38:58.495Z,10.10
2023-09-12T18:41:25.108Z,10.68
2023-09-12T18:43:52.459Z,11.18
2023-09-12T18:46:19.068Z,11.45
2023-09-12T18:48:45.935Z,10.20
2023-09-12T18:51:12.460Z,13.00
2023-09-12T18:53:39.017Z,10.00
2023-09-12T18:56:06.896Z,13.40
2023-09-12T18:58:33.924Z,16.60
2023-09-12T19:01:02.435Z,12.75
2023-09-12T19:03:29.135Z,15.32
2023-09-12T19:05:57.811Z,14.25
2023-09-12T19:08:25.027Z,13.25
2023-09-12T19:10:52.300Z,15.18
2023-09-12T19:13:19.053Z,17.33
2023-09-12T19:15:46.518Z,12.45
2023-09-12T19:18:13.285Z,15.68
2023-09-12T19:20:41.197Z,21.08
2023-09-12T19:23:07.795Z,15.82
2023-09-12T19:25:35.036Z,16.45
2023-09-12T19:28:08.783Z,15.10
2023-09-12T19:30:38.932Z,11.38
2023-09-12T19:33:09.317Z,11.23
2023-09-12T19:35:37.666Z,11.05
2023-09-12T19:38:05.729Z,13.13
2023-09-12T19:40:32.660Z,11.82
2023-09-12T19:42:59.271Z,10.40
2023-09-12T19:45:25.840Z,12.98
2023-09-12T19:48:00.715Z,14.00
2023-09-12T19:50:28.371Z,9.45
2023-09-12T19:52:54.884Z,10.75
2023-09-12T19:55:22.859Z,9.85
2023-09-12T19:57:51.088Z,10.85
2023-09-12T20:00:17.844Z,8.70
2023-09-12T20:02:45.070Z,9.23
2023-09-12T20:05:12.017Z,10.50
2023-09-12T20:07:38.547Z,8.98
2023-09-12T20:10:05.616Z,11.15
2023-09-12T20:12:33.048Z,13.48
2023-09-12T20:14:59.998Z,9.90
2023-09-12T20:17:27.065Z,9.70
2023-09-12T20:19:54.157Z,11.30
2023-09-12T20:22:21.207Z,12.50
2023-09-12T20:24:47.883Z,9.43
2023-09-12T20:27:14.374Z,12.15
2023-09-12T20:29:40.828Z,11.90
2023-09-12T20:32:07.373Z,16.45
2023-09-12T20:34:34.028Z,11.73
2023-09-12T20:37:03.840Z,14.27
2023-09-12T20:39:30.986Z,21.80
2023-09-12T20:41:57.797Z,12.00
2023-09-12T20:44:24.963Z,13.32
2023-09-12T20:46:52.045Z,13.95
2023-09-12T20:49:18.876Z,13.18
2023-09-12T20:51:50.006Z,14.90
2023-09-12T20:54:18.305Z,15.13
2023-09-12T20:56:47.931Z,10.48
2023-09-12T20:59:15.268Z,14.98
2023-09-12T21:01:41.760Z,11.02
2023-09-12T21:04:08.469Z,11.63
2023-09-12T21:06:35.295Z,14.48
2023-09-12T21:09:01.894Z,11.43
2023-09-12T21:11:28.352Z,14.40
2023-09-12T21:13:54.933Z,13.00
2023-09-12T21:16:21.599Z,10.80
2023-09-12T21:18:48.550Z,9.57
2023-09-12T21:21:15.216Z,12.35
2023-09-12T21:23:42.083Z,12.93
2023-09-12T21:26:09.043Z,10.52
2023-09-12T21:28:35.564Z,11.75
2023-09-12T21:31:02.196Z,10.02
2023-09-12T21:33:28.734Z,10.07
2023-09-12T21:35:55.263Z,8.77
2023-09-12T21:38:23.618Z,9.13
2023-09-12T21:40:50.237Z,7.75
2023-09-12T21:43:16.935Z,8.18
2023-09-12T21:45:43.663Z,9.32
2023-09-12T21:48:10.630Z,9.73
2023-09-12T21:50:37.553Z,9.35
2023-09-12T21:53:05.499Z,9.68
2023-09-12T21:55:35.379Z,10.65
2023-09-12T21:58:03.611Z,9.05
2023-09-12T22:00:32.093Z,10.93
2023-09-12T22:02:59.118Z,7.05
2023-09-12T22:05:25.795Z,6.07
2023-09-12T22:07:52.454Z,8.05
2023-09-12T22:10:19.372Z,9.95
2023-09-12T22:12:46.543Z,9.65
2023-09-12T22:15:13.323Z,7.28
2023-09-12T22:17:39.789Z,10.07
2023-09-12T22:20:07.238Z,7.82
2023-09-12T22:22:33.858Z,10.10
2023-09-12T22:25:00.539Z,13.23
2023-09-12T22:27:27.109Z,12.48
2023-09-12T22:29:54.103Z,15.18
2023-09-12T22:32:20.771Z,7.13
2023-09-12T22:34:47.309Z,9.07
2023-09-12T22:37:13.986Z,8.35
2023-09-12T22:39:40.571Z,7.18
2023-09-12T22:42:07.285Z,7.07
2023-09-12T22:44:33.763Z,8.63
2023-09-12T22:47:01.365Z,11.00
2023-09-12T22:49:27.967Z,9.68
2023-09-12T22:51:54.673Z,9.65
2023-09-12T22:54:21.291Z,8.23
2023-09-12T22:56:47.790Z,9.65
2023-09-12T22:59:14.495Z,9.75
2023-09-12T23:01:41.305Z,6.00
2023-09-12T23:04:07.961Z,12.50
2023-09-12T23:06:34.758Z,8.77
2023-09-12T23:09:01.272Z,12.00
2023-09-12T23:11:27.789Z,9.05
2023-09-12T23:13:54.722Z,12.40
2023-09-12T23:16:21.440Z,9.90
2023-09-12T23:18:48.486Z,15.65
2023-09-12T23:21:15.125Z,8.45
2023-09-12T23:23:42.175Z,13.90
2023-09-12T23:26:09.843Z,9.68
2023-09-12T23:28:36.346Z,9.55
2023-09-12T23:31:03.459Z,12.93
2023-09-12T23:33:30.087Z,12.63
2023-09-12T23:35:56.579Z,12.68
2023-09-12T23:38:23.069Z,11.75
2023-09-12T23:40:50.353Z,13.63
2023-09-12T23:43:17.007Z,12.30
2023-09-12T23:45:43.576Z,9.10
2023-09-12T23:48:10.270Z,10.95
2023-09-12T23:50:36.810Z,11.18
2023-09-12T23:53:04.480Z,13.73
2023-09-12T23:55:34.054Z,11.13
2023-09-12T23:58:00.586Z,14.65
